Time;durP1;ratioP1;P1;durP2;ratioP2;P2;SDS_P1;SDS_P2;PMS_P1;PMS_P2;Temp;Humidity;BMP_temperature;BMP_pressure;BME280_temperature;BME280_humidity;BME280_pressure;Samples;Min_cycle;Max_cycle;Signal;HPM_P1;HPM_P2
2022/10/08 00:01:04;;;;;;;;;;;21.30;99.90;;;;;;4927066;29;19914;-72
2022/10/08 00:03:33;;;;;;;;;;;21.40;99.90;;;;;;4927677;29;19934;-70
2022/10/08 00:06:02;;;;;;;;;;;21.40;99.90;;;;;;4961996;29;19938;-72
2022/10/08 00:08:29;;;;;;;;;;;21.30;99.90;;;;;;4936150;29;19915;-72
2022/10/08 00:10:57;;;;;;;;;;;21.30;99.90;;;;;;4927232;29;19923;-74
2022/10/08 00:13:26;;;;;;;;;;;21.20;99.90;;;;;;4927564;29;20238;-73
2022/10/08 00:15:55;;;;;;;;;;;21.10;99.90;;;;;;4926551;29;20499;-75
2022/10/08 00:18:22;;;;;;;;;;;21.10;99.90;;;;;;4927118;29;19970;-72
2022/10/08 00:20:49;;;;;;;;;;;21.10;99.90;;;;;;4926925;29;19922;-73
2022/10/08 00:23:15;;;;;;;;;;;21.00;99.90;;;;;;4926943;29;20410;-73
2022/10/08 00:25:43;;;;;;;;;;;20.90;99.90;;;;;;4927372;29;19921;-72
2022/10/08 00:28:11;;;;;;;;;;;21.00;99.90;;;;;;4926778;29;20660;-72
2022/10/08 00:30:39;;;;;;;;;;;21.00;99.90;;;;;;4926913;29;19915;-74
2022/10/08 00:33:07;;;;;;;;;;;21.00;99.90;;;;;;4926932;29;20289;-73
2022/10/08 00:35:37;;;;;;;;;;;21.10;99.90;;;;;;4926851;29;19915;-73
2022/10/08 00:38:04;;;;;;;;;;;21.20;99.90;;;;;;4927137;29;19915;-72
2022/10/08 00:40:31;;;;;;;;;;;21.30;99.90;;;;;;4927294;29;19922;-74
2022/10/08 00:42:59;;;;;;;;;;;21.30;99.90;;;;;;4928351;29;19914;-72
2022/10/08 00:45:25;;;;;;;;;;;21.30;99.90;;;;;;4927136;29;20034;-73
2022/10/08 00:47:55;;;;;;;;;;;21.30;99.90;;;;;;4926604;29;19922;-73
2022/10/08 00:50:30;;;;;;;;;;;21.30;99.90;;;;;;4928001;29;20346;-71
2022/10/08 00:53:00;;;;;;;;;;;21.20;99.90;;;;;;4930561;29;19982;-73
2022/10/08 00:55:27;;;;;;;;;;;21.10;99.90;;;;;;4944633;29;19919;-73
2022/10/08 00:58:00;;;;;;;;;;;21.10;99.90;;;;;;4929879;29;19927;-74
2022/10/08 01:00:28;;;;;;;;;;;21.10;99.90;;;;;;4930382;29;19915;-73
2022/10/08 01:02:54;;;;;;;;;;;21.10;99.90;;;;;;4930537;29;20362;-73
2022/10/08 01:05:29;;;;;;;;;;;21.20;99.90;;;;;;4930097;29;20436;-72
2022/10/08 01:08:06;;;;;;;;;;;21.30;99.90;;;;;;4929434;29;19937;-75
2022/10/08 01:10:42;;;;;;;;;;;21.30;99.90;;;;;;4929696;29;20098;-73
2022/10/08 01:13:15;;;;;;;;;;;21.20;99.90;;;;;;4929996;29;19922;-72
2022/10/08 01:15:49;;;;;;;;;;;21.10;99.90;;;;;;4930605;29;19915;-73
2022/10/08 01:18:27;;;;;;;;;;;21.20;99.90;;;;;;4931960;29;19915;-73
2022/10/08 01:20:57;;;;;;;;;;;21.30;99.90;;;;;;4930714;29;19923;-74
2022/10/08 01:23:27;;;;;;;;;;;21.30;99.90;;;;;;4930175;29;20771;-74
2022/10/08 01:25:58;;;;;;;;;;;21.10;99.90;;;;;;4929411;29;19915;-73
2022/10/08 01:28:32;;;;;;;;;;;21.10;99.90;;;;;;4930540;29;20480;-72
2022/10/08 01:30:59;;;;;;;;;;;21.10;99.90;;;;;;4930795;29;20516;-73
2022/10/08 01:33:43;;;;;;;;;;;21.30;99.90;;;;;;4930438;29;20402;-72
2022/10/08 01:36:11;;;;;;;;;;;21.40;99.90;;;;;;4930710;29;19922;-73
2022/10/08 01:38:41;;;;;;;;;;;21.30;99.90;;;;;;4934139;29;19915;-71
2022/10/08 01:41:09;;;;;;;;;;;21.10;99.90;;;;;;4948912;29;19915;-70
2022/10/08 01:43:38;;;;;;;;;;;21.00;99.90;;;;;;4934196;29;20421;-73
2022/10/08 01:46:10;;;;;;;;;;;21.00;99.90;;;;;;4931043;29;20104;-74
2022/10/08 01:48:39;;;;;;;;;;;20.90;99.90;;;;;;4930876;29;19919;-74
2022/10/08 01:51:13;;;;;;;;;;;20.70;99.90;;;;;;4929978;29;19917;-73
2022/10/08 01:53:41;;;;;;;;;;;20.60;99.90;;;;;;4930562;29;19919;-74
2022/10/08 01:56:10;;;;;;;;;;;20.50;99.90;;;;;;4930112;29;19915;-73
2022/10/08 01:58:46;;;;;;;;;;;20.50;99.90;;;;;;4929946;29;20005;-73
2022/10/08 02:01:22;;;;;;;;;;;20.40;99.90;;;;;;4928347;29;19922;-73
2022/10/08 02:06:36;;;;;;;;;;;20.10;99.90;;;;;;4937579;29;19926;-74
2022/10/08 02:09:03;;;;;;;;;;;20.00;99.90;;;;;;4937086;29;19914;-68
2022/10/08 02:11:34;;;;;;;;;;;19.90;99.90;;;;;;4937229;29;20400;-73
2022/10/08 02:14:02;;;;;;;;;;;19.90;99.90;;;;;;4937387;29;19977;-70
2022/10/08 02:16:29;;;;;;;;;;;19.70;99.90;;;;;;4936361;29;19911;-73
2022/10/08 02:18:59;;;;;;;;;;;19.60;99.90;;;;;;4951561;29;20013;-70
2022/10/08 02:21:27;;;;;;;;;;;19.50;99.90;;;;;;4937121;29;19963;-74
2022/10/08 02:24:10;;;;;;;;;;;19.40;99.90;;;;;;4937100;29;19915;-71
2022/10/08 02:26:39;;;;;;;;;;;19.30;99.90;;;;;;4936631;29;19910;-73
2022/10/08 02:29:15;;;;;;;;;;;19.20;99.90;;;;;;4936822;29;19965;-74
2022/10/08 02:31:50;;;;;;;;;;;19.20;99.90;;;;;;4937183;29;20287;-69
2022/10/08 02:34:34;;;;;;;;;;;19.30;99.90;;;;;;4937642;29;19922;-72
2022/10/08 02:37:09;;;;;;;;;;;19.30;99.90;;;;;;4936759;29;19961;-74
2022/10/08 02:39:37;;;;;;;;;;;19.40;99.90;;;;;;4936781;29;19911;-70
2022/10/08 02:42:06;;;;;;;;;;;19.40;99.90;;;;;;4936774;29;20425;-73
2022/10/08 02:44:35;;;;;;;;;;;19.50;99.90;;;;;;4936599;29;19919;-71
2022/10/08 02:47:04;;;;;;;;;;;19.50;99.90;;;;;;4936078;29;19922;-72
2022/10/08 02:49:34;;;;;;;;;;;19.50;99.90;;;;;;4936749;29;19918;-73
2022/10/08 02:52:02;;;;;;;;;;;19.50;99.90;;;;;;4936312;29;19923;-73
2022/10/08 02:54:32;;;;;;;;;;;19.40;99.90;;;;;;4936493;29;20326;-74
2022/10/08 02:57:03;;;;;;;;;;;19.40;99.90;;;;;;4936282;29;20382;-74
2022/10/08 02:59:31;;;;;;;;;;;19.40;99.90;;;;;;4936059;29;20251;-72
2022/10/08 03:02:00;;;;;;;;;;;19.40;99.90;;;;;;4936307;29;19923;-73
2022/10/08 03:04:32;;;;;;;;;;;19.40;99.90;;;;;;4936331;29;19914;-69
2022/10/08 03:06:59;;;;;;;;;;;19.40;99.90;;;;;;4935533;29;20274;-74
2022/10/08 03:09:30;;;;;;;;;;;19.40;99.90;;;;;;4935738;29;19911;-71
2022/10/08 03:11:59;;;;;;;;;;;19.30;99.90;;;;;;4938943;29;19919;-70
2022/10/08 03:14:38;;;;;;;;;;;19.40;99.90;;;;;;4950981;29;19993;-71
2022/10/08 03:17:08;;;;;;;;;;;19.40;99.90;;;;;;4936514;29;20449;-71
2022/10/08 03:19:34;;;;;;;;;;;19.40;99.90;;;;;;4935920;29;19918;-74
2022/10/08 03:22:01;;;;;;;;;;;19.40;99.90;;;;;;4935620;29;19915;-68
2022/10/08 03:24:28;;;;;;;;;;;19.40;99.90;;;;;;4935866;29;20680;-73
2022/10/08 03:26:55;;;;;;;;;;;19.30;99.90;;;;;;4935595;29;20290;-71
2022/10/08 03:29:23;;;;;;;;;;;19.30;99.90;;;;;;4935509;29;20677;-70
2022/10/08 03:31:50;;;;;;;;;;;19.10;99.90;;;;;;4935902;29;20015;-70
2022/10/08 03:34:16;;;;;;;;;;;18.90;99.90;;;;;;4935652;29;19919;-69
2022/10/08 03:36:43;;;;;;;;;;;18.90;99.90;;;;;;4935209;29;19938;-71
2022/10/08 03:39:10;;;;;;;;;;;18.80;99.90;;;;;;4935428;29;20336;-71
2022/10/08 03:41:37;;;;;;;;;;;18.70;99.90;;;;;;4935876;29;19910;-74
2022/10/08 03:44:07;;;;;;;;;;;18.80;99.90;;;;;;4935244;29;19952;-72
2022/10/08 03:46:34;;;;;;;;;;;18.60;99.90;;;;;;4935017;29;19918;-74
2022/10/08 03:49:03;;;;;;;;;;;18.60;99.90;;;;;;4935680;29;19943;-70
2022/10/08 03:51:29;;;;;;;;;;;18.60;99.90;;;;;;4934726;29;20005;-68
2022/10/08 03:53:56;;;;;;;;;;;18.60;99.90;;;;;;4934423;29;19986;-69
2022/10/08 03:56:23;;;;;;;;;;;18.50;99.90;;;;;;4934667;29;19986;-69
2022/10/08 03:58:54;;;;;;;;;;;18.50;99.90;;;;;;4935144;29;19910;-68
2022/10/08 04:01:21;;;;;;;;;;;18.40;99.90;;;;;;4934086;29;19910;-69
2022/10/08 04:03:48;;;;;;;;;;;18.50;99.90;;;;;;4935494;29;19919;-69
2022/10/08 04:06:15;;;;;;;;;;;18.50;99.90;;;;;;4935129;29;19950;-69
2022/10/08 04:08:45;;;;;;;;;;;18.60;99.90;;;;;;4934105;29;20319;-72
2022/10/08 04:11:13;;;;;;;;;;;18.70;99.90;;;;;;4934561;29;20418;-70
2022/10/08 04:13:41;;;;;;;;;;;18.60;99.90;;;;;;4934951;29;19963;-74
2022/10/08 04:16:10;;;;;;;;;;;18.70;99.90;;;;;;4934579;29;20413;-73
2022/10/08 04:18:36;;;;;;;;;;;18.60;99.90;;;;;;4934939;29;19911;-70
2022/10/08 04:21:06;;;;;;;;;;;18.40;99.90;;;;;;4934571;29;19974;-70
2022/10/08 04:23:33;;;;;;;;;;;18.30;99.90;;;;;;4934309;29;19915;-73
2022/10/08 04:26:00;;;;;;;;;;;18.20;99.90;;;;;;4933717;29;19911;-70
2022/10/08 04:28:27;;;;;;;;;;;18.20;99.90;;;;;;4934950;29;19911;-68
2022/10/08 04:30:55;;;;;;;;;;;18.20;99.90;;;;;;4935044;29;19926;-67
2022/10/08 04:33:21;;;;;;;;;;;18.20;99.90;;;;;;4934846;29;19987;-69
2022/10/08 04:35:48;;;;;;;;;;;18.20;99.90;;;;;;4934738;29;20337;-68
2022/10/08 04:38:16;;;;;;;;;;;18.00;99.90;;;;;;4934774;29;20342;-69
2022/10/08 04:40:42;;;;;;;;;;;17.90;99.90;;;;;;4935012;29;19937;-69
2022/10/08 04:43:12;;;;;;;;;;;17.90;99.90;;;;;;4934782;29;19911;-69
2022/10/08 04:45:45;;;;;;;;;;;17.90;99.90;;;;;;4934594;29;19914;-68
2022/10/08 04:48:12;;;;;;;;;;;17.90;99.90;;;;;;4937632;29;19915;-68
2022/10/08 04:50:39;;;;;;;;;;;17.90;99.90;;;;;;4946091;29;19913;-69
2022/10/08 04:53:06;;;;;;;;;;;17.80;99.90;;;;;;4934975;29;20560;-68
2022/10/08 04:55:36;;;;;;;;;;;17.90;99.90;;;;;;4934614;29;19915;-69
2022/10/08 04:58:02;;;;;;;;;;;17.90;99.90;;;;;;4934959;29;19914;-69
2022/10/08 05:00:29;;;;;;;;;;;17.70;99.90;;;;;;4934852;29;19915;-70
2022/10/08 05:02:56;;;;;;;;;;;17.70;99.90;;;;;;4934511;29;19923;-69
2022/10/08 05:05:23;;;;;;;;;;;17.60;99.90;;;;;;4934540;29;19919;-69
2022/10/08 05:07:50;;;;;;;;;;;17.50;99.90;;;;;;4934342;29;19946;-69
2022/10/08 05:10:18;;;;;;;;;;;17.50;99.90;;;;;;4934866;29;19981;-69
2022/10/08 05:12:45;;;;;;;;;;;17.40;99.90;;;;;;4934472;29;19926;-72
2022/10/08 05:15:14;;;;;;;;;;;17.30;99.90;;;;;;4934025;29;19911;-73
2022/10/08 05:17:41;;;;;;;;;;;17.30;99.90;;;;;;4933450;29;19915;-70
2022/10/08 05:20:07;;;;;;;;;;;17.30;99.90;;;;;;4934322;29;20014;-71
2022/10/08 05:22:34;;;;;;;;;;;17.30;99.90;;;;;;4933803;29;20005;-73
2022/10/08 05:25:01;;;;;;;;;;;17.30;99.90;;;;;;4934164;29;19915;-72
2022/10/08 05:27:28;;;;;;;;;;;17.20;99.90;;;;;;4933868;29;19918;-72
2022/10/08 05:29:54;;;;;;;;;;;17.10;99.90;;;;;;4933872;29;19958;-69
2022/10/08 05:32:21;;;;;;;;;;;17.10;99.90;;;;;;4933994;29;20370;-73
2022/10/08 05:34:47;;;;;;;;;;;17.00;99.90;;;;;;4933921;29;20417;-73
2022/10/08 05:37:14;;;;;;;;;;;16.90;99.90;;;;;;4936050;29;19958;-73
2022/10/08 05:39:41;;;;;;;;;;;16.90;99.90;;;;;;4930357;29;19977;-73
2022/10/08 05:42:08;;;;;;;;;;;16.90;99.90;;;;;;4930267;29;19961;-72
2022/10/08 05:44:34;;;;;;;;;;;17.00;99.90;;;;;;4929600;29;20622;-71
2022/10/08 05:47:01;;;;;;;;;;;17.10;99.90;;;;;;4929142;29;20349;-74
2022/10/08 05:49:27;;;;;;;;;;;17.10;99.90;;;;;;4929382;29;20412;-73
2022/10/08 05:51:54;;;;;;;;;;;17.00;99.90;;;;;;4928894;29;19918;-70
2022/10/08 05:54:21;;;;;;;;;;;17.00;99.90;;;;;;4929648;29;19915;-72
2022/10/08 05:56:48;;;;;;;;;;;17.10;99.90;;;;;;4929182;29;19922;-73
2022/10/08 05:59:21;;;;;;;;;;;17.00;99.90;;;;;;4930642;29;20374;-69
2022/10/08 06:01:49;;;;;;;;;;;17.10;99.90;;;;;;4937268;29;19973;-71
2022/10/08 06:04:17;;;;;;;;;;;17.10;99.90;;;;;;4937409;29;20334;-71
2022/10/08 06:06:44;;;;;;;;;;;17.10;99.90;;;;;;4936889;29;20022;-73
2022/10/08 06:09:15;;;;;;;;;;;17.10;99.90;;;;;;4937285;29;20045;-72
2022/10/08 06:11:41;;;;;;;;;;;17.00;99.90;;;;;;4937178;29;19919;-69
2022/10/08 06:14:09;;;;;;;;;;;17.00;99.90;;;;;;4937165;29;19942;-73
2022/10/08 06:16:36;;;;;;;;;;;17.10;99.90;;;;;;4936956;29;20368;-73
2022/10/08 06:19:04;;;;;;;;;;;17.10;99.90;;;;;;4937355;29;19922;-69
2022/10/08 06:21:31;;;;;;;;;;;17.00;99.90;;;;;;4937185;29;19915;-70
2022/10/08 06:23:59;;;;;;;;;;;17.00;99.90;;;;;;4946635;29;19914;-71
2022/10/08 06:26:27;;;;;;;;;;;17.00;99.90;;;;;;4953902;29;20428;-71
2022/10/08 06:28:54;;;;;;;;;;;17.10;99.90;;;;;;4937769;29;19946;-73
2022/10/08 06:31:21;;;;;;;;;;;17.10;99.90;;;;;;4936855;29;20384;-70
2022/10/08 06:33:48;;;;;;;;;;;17.10;99.90;;;;;;4937408;29;20271;-69
2022/10/08 06:36:16;;;;;;;;;;;17.10;99.90;;;;;;4936727;29;19917;-71
2022/10/08 06:38:43;;;;;;;;;;;17.00;99.90;;;;;;4937583;29;19930;-73
2022/10/08 06:41:09;;;;;;;;;;;17.10;99.90;;;;;;4936999;29;19942;-72
2022/10/08 06:43:36;;;;;;;;;;;17.10;99.90;;;;;;4937092;29;19914;-73
2022/10/08 06:46:04;;;;;;;;;;;17.10;99.90;;;;;;4936839;29;19915;-69
2022/10/08 06:48:31;;;;;;;;;;;17.00;99.90;;;;;;4934376;29;19914;-70
2022/10/08 06:51:01;;;;;;;;;;;17.00;99.90;;;;;;4934720;29;19918;-72
2022/10/08 06:53:31;;;;;;;;;;;17.00;99.90;;;;;;4934926;29;19919;-73
2022/10/08 06:56:04;;;;;;;;;;;17.00;99.90;;;;;;4934482;29;19923;-72
2022/10/08 06:58:31;;;;;;;;;;;16.90;99.90;;;;;;4934537;29;19915;-69
2022/10/08 07:01:02;;;;;;;;;;;16.90;99.90;;;;;;4934242;29;19922;-71
2022/10/08 07:03:29;;;;;;;;;;;16.90;99.90;;;;;;4934471;29;19926;-73
2022/10/08 07:06:00;;;;;;;;;;;16.80;99.90;;;;;;4934010;29;19930;-72
2022/10/08 07:08:27;;;;;;;;;;;16.80;99.90;;;;;;4934342;29;19941;-71
2022/10/08 07:10:53;;;;;;;;;;;16.80;99.90;;;;;;4934887;29;19919;-73
2022/10/08 07:13:22;;;;;;;;;;;16.70;99.90;;;;;;4934369;29;20557;-72
2022/10/08 07:15:48;;;;;;;;;;;16.70;99.90;;;;;;4933566;29;20325;-73
2022/10/08 07:18:15;;;;;;;;;;;16.70;99.90;;;;;;4934392;29;20462;-70
2022/10/08 07:20:44;;;;;;;;;;;16.60;99.90;;;;;;4934071;29;20294;-73
2022/10/08 07:23:11;;;;;;;;;;;16.60;99.90;;;;;;4934046;29;19946;-72
2022/10/08 07:25:38;;;;;;;;;;;16.60;99.90;;;;;;4932379;29;19915;-73
2022/10/08 07:28:04;;;;;;;;;;;16.50;99.90;;;;;;4934223;29;19938;-73
2022/10/08 07:30:31;;;;;;;;;;;16.50;99.90;;;;;;4934418;29;20271;-72
2022/10/08 07:32:59;;;;;;;;;;;16.40;99.90;;;;;;4934015;29;19923;-73
2022/10/08 07:35:28;;;;;;;;;;;16.40;99.90;;;;;;4933349;29;19957;-70
2022/10/08 07:37:55;;;;;;;;;;;16.30;99.90;;;;;;4948403;29;19919;-73
2022/10/08 07:40:21;;;;;;;;;;;16.30;99.90;;;;;;4933595;29;20001;-74
2022/10/08 07:42:52;;;;;;;;;;;16.20;99.90;;;;;;4934050;29;20359;-73
2022/10/08 07:45:24;;;;;;;;;;;16.20;99.90;;;;;;4933340;29;19919;-73
2022/10/08 07:47:50;;;;;;;;;;;16.30;99.90;;;;;;4933825;29;20014;-73
2022/10/08 07:50:17;;;;;;;;;;;16.20;99.90;;;;;;4934165;29;19933;-70
2022/10/08 07:52:43;;;;;;;;;;;16.20;99.90;;;;;;4939894;29;20314;-74
2022/10/08 07:55:10;;;;;;;;;;;16.10;99.90;;;;;;4934142;29;20010;-73
2022/10/08 07:57:37;;;;;;;;;;;16.10;99.90;;;;;;4938641;29;19915;-73
2022/10/08 08:00:04;;;;;;;;;;;16.10;99.90;;;;;;4945890;29;19919;-73
2022/10/08 08:02:31;;;;;;;;;;;16.00;99.90;;;;;;4941320;29;19926;-73
2022/10/08 08:04:58;;;;;;;;;;;15.90;99.90;;;;;;4936394;29;19914;-73
2022/10/08 08:07:25;;;;;;;;;;;15.90;99.90;;;;;;4936198;29;20282;-72
2022/10/08 08:09:51;;;;;;;;;;;15.80;99.90;;;;;;4936295;29;20394;-74
2022/10/08 08:12:18;;;;;;;;;;;15.70;99.90;;;;;;4935290;29;20354;-74
2022/10/08 08:14:45;;;;;;;;;;;15.70;99.90;;;;;;4935201;29;19915;-71
2022/10/08 08:17:12;;;;;;;;;;;15.70;99.90;;;;;;4931724;29;19922;-73
2022/10/08 08:19:39;;;;;;;;;;;15.80;99.90;;;;;;4928008;29;20208;-72
2022/10/08 08:22:06;;;;;;;;;;;15.90;99.90;;;;;;4928399;29;20370;-73
2022/10/08 08:24:32;;;;;;;;;;;15.90;99.90;;;;;;4928533;29;20014;-72
2022/10/08 08:26:59;;;;;;;;;;;15.90;99.90;;;;;;4928140;29;19919;-74
2022/10/08 08:29:26;;;;;;;;;;;15.90;99.90;;;;;;4928351;29;20685;-74
2022/10/08 08:31:52;;;;;;;;;;;15.90;99.90;;;;;;4928229;29;19922;-72
2022/10/08 08:34:20;;;;;;;;;;;15.90;99.90;;;;;;4926329;29;19957;-73
2022/10/08 08:36:48;;;;;;;;;;;16.00;99.90;;;;;;4926451;29;20005;-74
2022/10/08 08:39:16;;;;;;;;;;;16.00;99.90;;;;;;4926597;29;20035;-72
2022/10/08 08:41:45;;;;;;;;;;;16.00;99.90;;;;;;4926711;29;19921;-73
2022/10/08 08:44:21;;;;;;;;;;;16.00;99.90;;;;;;4927046;29;19914;-73
2022/10/08 08:46:55;;;;;;;;;;;16.00;99.90;;;;;;4926204;29;19963;-74
2022/10/08 08:49:28;;;;;;;;;;;16.00;99.90;;;;;;4926799;29;19915;-72
2022/10/08 08:51:55;;;;;;;;;;;16.10;99.90;;;;;;4926543;29;19927;-71
2022/10/08 08:54:22;;;;;;;;;;;16.10;99.90;;;;;;4926804;29;20025;-72
2022/10/08 08:56:49;;;;;;;;;;;16.10;99.90;;;;;;4926737;29;19946;-72
2022/10/08 08:59:16;;;;;;;;;;;16.10;99.90;;;;;;4926309;29;20094;-71
2022/10/08 09:01:44;;;;;;;;;;;16.00;99.90;;;;;;4924807;29;19919;-71
2022/10/08 09:04:14;;;;;;;;;;;16.10;99.90;;;;;;4927148;29;19915;-72
2022/10/08 09:06:42;;;;;;;;;;;16.00;99.90;;;;;;4926368;29;19961;-74
2022/10/08 09:09:27;;;;;;;;;;;16.00;99.90;;;;;;4926579;29;19914;-74
2022/10/08 09:11:54;;;;;;;;;;;15.90;99.90;;;;;;4928134;29;19966;-74
2022/10/08 09:14:21;;;;;;;;;;;16.00;99.90;;;;;;4930123;29;19923;-72
2022/10/08 09:16:47;;;;;;;;;;;16.00;99.90;;;;;;4929656;29;19920;-69
2022/10/08 09:19:14;;;;;;;;;;;16.00;99.90;;;;;;4929855;29;20053;-73
2022/10/08 09:21:41;;;;;;;;;;;16.10;99.90;;;;;;4930235;29;19915;-70
2022/10/08 09:24:09;;;;;;;;;;;16.00;99.90;;;;;;4929956;29;20527;-71
2022/10/08 09:26:35;;;;;;;;;;;16.00;99.90;;;;;;4929532;29;19914;-70
2022/10/08 09:29:05;;;;;;;;;;;16.00;99.90;;;;;;4929706;29;19919;-74
2022/10/08 09:31:38;;;;;;;;;;;16.00;99.90;;;;;;4929969;29;20381;-72
2022/10/08 09:34:17;;;;;;;;;;;15.80;99.90;;;;;;4929994;29;19925;-72
2022/10/08 09:37:02;;;;;;;;;;;15.80;99.90;;;;;;4954330;29;19953;-69
2022/10/08 09:39:30;;;;;;;;;;;15.70;99.90;;;;;;4932795;29;19915;-73
2022/10/08 09:42:06;;;;;;;;;;;15.70;99.90;;;;;;4930285;29;19921;-74
2022/10/08 09:44:57;;;;;;;;;;;15.70;99.90;;;;;;4929914;29;19926;-73
2022/10/08 09:47:25;;;;;;;;;;;15.60;99.90;;;;;;4929315;29;19919;-69
2022/10/08 09:50:11;;;;;;;;;;;15.70;99.90;;;;;;4927764;29;19937;-69
2022/10/08 09:52:39;;;;;;;;;;;15.70;99.90;;;;;;4929432;29;19923;-73
2022/10/08 09:55:10;;;;;;;;;;;15.60;99.90;;;;;;4929029;29;19914;-73
2022/10/08 09:57:44;;;;;;;;;;;15.60;99.90;;;;;;4929668;29;20370;-72
2022/10/08 10:00:22;;;;;;;;;;;15.60;99.90;;;;;;4929699;29;19954;-74
2022/10/08 10:02:52;;;;;;;;;;;15.60;99.90;;;;;;4929397;29;19927;-70
2022/10/08 10:05:26;;;;;;;;;;;15.60;99.90;;;;;;4928230;29;19956;-73
2022/10/08 10:07:53;;;;;;;;;;;15.60;99.90;;;;;;4929384;29;20684;-73
2022/10/08 10:10:22;;;;;;;;;;;15.60;99.90;;;;;;4929392;29;19914;-74
2022/10/08 10:12:54;;;;;;;;;;;15.60;99.90;;;;;;4929220;29;19961;-72
2022/10/08 10:15:23;;;;;;;;;;;15.70;99.90;;;;;;4928831;29;19915;-69
2022/10/08 10:17:53;;;;;;;;;;;15.70;99.90;;;;;;4928864;29;19914;-71
2022/10/08 10:20:25;;;;;;;;;;;15.60;99.90;;;;;;4929216;29;19923;-71
2022/10/08 10:22:55;;;;;;;;;;;15.30;99.90;;;;;;4927783;29;19914;-70
2022/10/08 10:25:37;;;;;;;;;;;15.00;99.90;;;;;;4928519;29;20389;-69
2022/10/08 10:28:15;;;;;;;;;;;14.80;99.90;;;;;;4928977;29;20460;-70
2022/10/08 10:30:48;;;;;;;;;;;14.70;99.90;;;;;;4928233;29;19993;-72
2022/10/08 10:33:21;;;;;;;;;;;14.60;99.90;;;;;;4928617;29;20412;-74
2022/10/08 10:35:50;;;;;;;;;;;14.50;99.90;;;;;;4928648;29;19914;-72
2022/10/08 10:38:28;;;;;;;;;;;14.50;99.90;;;;;;4928653;29;20649;-70
2022/10/08 10:40:55;;;;;;;;;;;14.60;99.90;;;;;;4928545;29;19914;-73
2022/10/08 10:43:35;;;;;;;;;;;14.50;99.90;;;;;;4928314;29;19915;-71
2022/10/08 10:46:22;;;;;;;;;;;14.60;99.90;;;;;;4928468;29;19914;-68
2022/10/08 10:48:49;;;;;;;;;;;14.60;99.90;;;;;;4921277;29;20649;-71
2022/10/08 10:51:26;;;;;;;;;;;14.50;99.90;;;;;;4927688;29;19970;-69
2022/10/08 10:54:11;;;;;;;;;;;14.50;99.90;;;;;;4928535;29;20596;-71
2022/10/08 10:56:42;;;;;;;;;;;14.50;99.90;;;;;;4926017;29;20005;-69
2022/10/08 10:59:12;;;;;;;;;;;14.50;99.90;;;;;;4928493;29;19914;-68
2022/10/08 11:01:41;;;;;;;;;;;14.50;99.90;;;;;;4928234;29;19926;-69
2022/10/08 11:04:08;;;;;;;;;;;14.60;99.90;;;;;;4928307;29;19919;-70
2022/10/08 11:06:58;;;;;;;;;;;14.60;99.90;;;;;;4928109;29;19951;-69
2022/10/08 11:09:32;;;;;;;;;;;14.60;99.90;;;;;;4928114;29;20347;-69
2022/10/08 11:12:03;;;;;;;;;;;14.60;99.90;;;;;;4937489;29;20028;-69
2022/10/08 11:14:36;;;;;;;;;;;14.60;99.90;;;;;;4945223;29;19954;-69
2022/10/08 11:17:07;;;;;;;;;;;14.60;99.90;;;;;;4929437;29;19915;-70
2022/10/08 11:19:40;;;;;;;;;;;14.70;99.90;;;;;;4928202;29;19954;-69
2022/10/08 11:22:09;;;;;;;;;;;14.60;99.90;;;;;;4928015;29;20034;-69
2022/10/08 11:24:54;;;;;;;;;;;14.60;99.90;;;;;;4927558;29;19915;-72
2022/10/08 11:27:30;;;;;;;;;;;14.70;99.90;;;;;;4927706;29;19997;-68
2022/10/08 11:30:02;;;;;;;;;;;14.60;99.90;;;;;;4927796;29;19937;-70
2022/10/08 11:32:31;;;;;;;;;;;14.60;99.90;;;;;;4927827;29;19929;-68
2022/10/08 11:34:57;;;;;;;;;;;14.70;99.90;;;;;;4926943;29;19914;-69
2022/10/08 11:37:31;;;;;;;;;;;14.70;99.90;;;;;;4927084;29;19984;-70
2022/10/08 11:39:58;;;;;;;;;;;14.80;99.90;;;;;;4927922;29;19954;-69
2022/10/08 11:42:33;;;;;;;;;;;14.80;99.90;;;;;;4927817;29;20380;-71
2022/10/08 11:45:32;;;;;;;;;;;14.80;99.90;;;;;;4927627;29;19915;-70
2022/10/08 11:48:00;;;;;;;;;;;14.80;99.90;;;;;;4905412;29;19934;-72
2022/10/08 11:50:27;;;;;;;;;;;14.70;99.90;;;;;;4926818;29;19915;-69
2022/10/08 11:52:56;;;;;;;;;;;14.70;99.90;;;;;;4927400;29;20029;-73
2022/10/08 11:55:28;;;;;;;;;;;14.70;99.90;;;;;;4927159;29;20444;-70
2022/10/08 11:58:03;;;;;;;;;;;14.70;99.90;;;;;;4927327;29;19914;-68
2022/10/08 12:00:32;;;;;;;;;;;14.70;99.90;;;;;;4927321;29;19921;-68
2022/10/08 12:02:59;;;;;;;;;;;14.70;99.90;;;;;;4926916;29;20033;-69
2022/10/08 12:05:26;;;;;;;;;;;14.70;99.90;;;;;;4927127;29;20326;-69
2022/10/08 12:07:54;;;;;;;;;;;14.70;99.90;;;;;;4935378;29;19980;-68
2022/10/08 12:10:26;;;;;;;;;;;14.70;99.90;;;;;;4935191;29;19915;-69
2022/10/08 12:12:52;;;;;;;;;;;14.80;99.90;;;;;;4935211;29;19922;-68
2022/10/08 12:15:32;;;;;;;;;;;14.80;99.90;;;;;;4934576;29;19917;-70
2022/10/08 12:18:21;;;;;;;;;;;14.90;99.90;;;;;;4935307;29;20293;-69
2022/10/08 12:21:08;;;;;;;;;;;15.00;99.90;;;;;;4935069;29;19914;-69
2022/10/08 12:23:38;;;;;;;;;;;15.00;99.90;;;;;;4915154;29;20049;-70
2022/10/08 12:26:07;;;;;;;;;;;15.00;99.90;;;;;;4933704;29;20405;-71
2022/10/08 12:28:34;;;;;;;;;;;15.00;99.90;;;;;;4934817;29;19914;-69
2022/10/08 12:31:14;;;;;;;;;;;15.00;99.90;;;;;;4935166;29;19958;-68
2022/10/08 12:33:41;;;;;;;;;;;15.00;99.90;;;;;;4934446;29;19992;-69
2022/10/08 12:36:15;;;;;;;;;;;15.00;99.90;;;;;;4934309;29;19926;-68
2022/10/08 12:38:43;;;;;;;;;;;15.00;99.90;;;;;;4934679;29;19958;-68
2022/10/08 12:41:10;;;;;;;;;;;15.00;99.90;;;;;;4934759;29;19918;-69
2022/10/08 12:43:49;;;;;;;;;;;14.90;99.90;;;;;;4934975;29;19918;-69
2022/10/08 12:46:18;;;;;;;;;;;14.90;99.90;;;;;;4935615;29;20389;-68
2022/10/08 12:48:48;;;;;;;;;;;14.90;99.90;;;;;;4942150;29;19918;-70
2022/10/08 12:51:23;;;;;;;;;;;14.90;99.90;;;;;;4953217;29;20057;-68
2022/10/08 12:53:50;;;;;;;;;;;14.90;99.90;;;;;;4940670;29;19919;-69
2022/10/08 12:56:21;;;;;;;;;;;14.90;99.90;;;;;;4938480;29;19915;-69
2022/10/08 12:58:48;;;;;;;;;;;14.90;99.90;;;;;;4938666;29;19921;-68
2022/10/08 13:01:17;;;;;;;;;;;14.90;99.90;;;;;;4938239;29;20363;-69
2022/10/08 13:03:44;;;;;;;;;;;14.90;99.90;;;;;;4938461;29;19958;-68
2022/10/08 13:06:25;;;;;;;;;;;14.80;99.90;;;;;;4938072;29;20009;-69
2022/10/08 13:08:53;;;;;;;;;;;14.80;99.90;;;;;;4938415;29;20264;-68
2022/10/08 13:11:19;;;;;;;;;;;14.70;99.90;;;;;;4938156;29;19911;-72
2022/10/08 13:13:50;;;;;;;;;;;14.50;99.90;;;;;;4938300;29;20291;-68
2022/10/08 13:16:44;;;;;;;;;;;14.40;99.90;;;;;;4937914;29;19978;-69
2022/10/08 13:19:27;;;;;;;;;;;14.30;99.90;;;;;;4937937;29;20010;-69
2022/10/08 13:21:56;;;;;;;;;;;14.30;99.90;;;;;;4938326;29;19915;-69
2022/10/08 13:24:25;;;;;;;;;;;14.20;99.90;;;;;;4938279;29;20006;-69
2022/10/08 13:26:55;;;;;;;;;;;14.20;99.90;;;;;;4937945;29;19918;-69
2022/10/08 13:29:21;;;;;;;;;;;14.10;99.90;;;;;;4952436;29;19922;-68
2022/10/08 13:32:11;;;;;;;;;;;14.10;99.90;;;;;;4938118;29;20441;-72
2022/10/08 13:34:41;;;;;;;;;;;14.20;99.90;;;;;;4931753;29;20324;-71
2022/10/08 13:37:10;;;;;;;;;;;14.10;99.90;;;;;;4937325;29;19918;-73
2022/10/08 13:39:41;;;;;;;;;;;14.00;99.90;;;;;;4937694;29;20334;-73
2022/10/08 13:42:14;;;;;;;;;;;14.00;99.90;;;;;;4937769;29;20032;-75
2022/10/08 13:44:42;;;;;;;;;;;14.00;99.90;;;;;;4937258;29;19926;-73
2022/10/08 13:47:12;;;;;;;;;;;14.00;99.90;;;;;;4937426;29;20346;-71
2022/10/08 13:49:39;;;;;;;;;;;13.80;99.90;;;;;;4937173;29;19922;-71
2022/10/08 13:52:06;;;;;;;;;;;13.70;99.90;;;;;;4937140;29;19997;-69
2022/10/08 13:54:33;;;;;;;;;;;13.70;99.90;;;;;;4936992;29;19914;-71
2022/10/08 13:57:00;;;;;;;;;;;13.50;99.90;;;;;;4936790;29;19911;-72
2022/10/08 13:59:26;;;;;;;;;;;13.40;99.90;;;;;;4936917;29;19914;-72
2022/10/08 14:01:53;;;;;;;;;;;13.40;99.90;;;;;;4936643;29;19918;-72
2022/10/08 14:04:19;;;;;;;;;;;13.50;99.90;;;;;;4936982;29;19911;-74
2022/10/08 14:06:48;;;;;;;;;;;13.50;99.90;;;;;;4936837;29;20001;-73
2022/10/08 14:09:17;;;;;;;;;;;13.40;99.90;;;;;;4936833;29;19975;-74
2022/10/08 14:11:45;;;;;;;;;;;13.30;99.90;;;;;;4936999;29;20363;-69
2022/10/08 14:14:13;;;;;;;;;;;13.30;99.90;;;;;;4937184;29;20268;-71
2022/10/08 14:16:40;;;;;;;;;;;13.30;99.90;;;;;;4936951;29;19914;-74
2022/10/08 14:19:07;;;;;;;;;;;13.20;99.90;;;;;;4936631;29;20477;-70
2022/10/08 14:21:34;;;;;;;;;;;13.20;99.90;;;;;;4936403;29;20010;-69
2022/10/08 14:24:00;;;;;;;;;;;13.20;99.90;;;;;;4937024;29;19921;-72
2022/10/08 14:26:27;;;;;;;;;;;13.20;99.90;;;;;;4944541;29;19979;-71
2022/10/08 14:28:58;;;;;;;;;;;13.10;99.90;;;;;;4952343;29;19915;-71
2022/10/08 14:31:27;;;;;;;;;;;13.20;99.90;;;;;;4936872;29;20474;-69
2022/10/08 14:33:54;;;;;;;;;;;13.10;99.90;;;;;;4936488;29;20302;-72